createdAt,value
2023-04-28T00:02:27.196Z,8.27
2023-04-28T00:07:31.640Z,8.20
2023-04-28T00:12:37.886Z,9.40
2023-04-28T00:17:42.291Z,9.47
2023-04-28T00:22:46.832Z,9.27
2023-04-28T00:27:53.346Z,10.27
2023-04-28T00:32:57.793Z,13.17
2023-04-28T00:38:04.573Z,11.50
2023-04-28T00:43:08.707Z,14.00
2023-04-28T00:48:16.030Z,12.70
2023-04-28T00:53:20.049Z,13.17
2023-04-28T00:58:21.839Z,13.80
2023-04-28T01:03:23.695Z,14.83
2023-04-28T01:08:33.291Z,14.57
2023-04-28T01:13:38.600Z,17.30
2023-04-28T01:18:49.899Z,18.90
2023-04-28T01:23:52.135Z,17.07
2023-04-28T01:28:56.044Z,19.00
2023-04-28T01:34:02.062Z,18.77
2023-04-28T01:39:06.340Z,17.70
2023-04-28T01:44:11.866Z,17.10
2023-04-28T01:49:15.850Z,15.73
2023-04-28T01:54:20.257Z,17.47
2023-04-28T01:59:27.070Z,21.10
2023-04-28T02:04:28.985Z,20.80
2023-04-28T02:09:33.284Z,21.80
2023-04-28T02:14:37.390Z,18.93
2023-04-28T02:19:39.077Z,18.90
2023-04-28T02:24:40.947Z,20.93
2023-04-28T02:29:42.648Z,20.07
2023-04-28T02:34:44.317Z,21.50
2023-04-28T02:39:46.357Z,27.07
2023-04-28T02:44:51.495Z,22.50
2023-04-28T02:49:55.535Z,23.57
2023-04-28T02:55:03.897Z,23.83
2023-04-28T03:00:06.686Z,22.87
2023-04-28T03:05:16.600Z,22.03
2023-04-28T03:10:18.430Z,22.63
2023-04-28T03:15:22.379Z,22.70
2023-04-28T03:20:26.744Z,25.40
2023-04-28T03:25:31.018Z,21.10
2023-04-28T03:30:35.889Z,25.77
2023-04-28T03:35:37.563Z,30.37
2023-04-28T03:40:39.410Z,29.50
2023-04-28T03:45:43.688Z,30.97
2023-04-28T03:50:47.618Z,32.40
2023-04-28T03:55:49.939Z,30.77
2023-04-28T04:00:57.192Z,33.83
2023-04-28T04:06:01.916Z,32.20
2023-04-28T04:11:03.656Z,27.20
2023-04-28T04:16:10.420Z,27.83
2023-04-28T04:21:16.528Z,27.13
2023-04-28T04:26:21.000Z,22.23
2023-04-28T04:31:25.050Z,21.70
2023-04-28T04:36:29.179Z,21.97
2023-04-28T04:41:33.183Z,21.43
2023-04-28T04:47:07.510Z,20.93
2023-04-28T04:52:12.922Z,21.65
2023-04-28T04:57:14.766Z,22.50
2023-04-28T05:02:35.270Z,23.50
2023-04-28T05:07:39.298Z,18.70
2023-04-28T05:12:41.371Z,20.23
2023-04-28T05:17:50.473Z,21.73
2023-04-28T05:22:52.821Z,17.40
2023-04-28T05:27:57.830Z,18.97
2023-04-28T05:33:04.922Z,18.57
2023-04-28T05:38:07.201Z,20.87
2023-04-28T05:43:09.045Z,18.33
2023-04-28T05:48:11.050Z,19.67
2023-04-28T05:53:16.277Z,14.47
2023-04-28T05:58:21.297Z,14.47
2023-04-28T06:03:25.585Z,15.40
2023-04-28T06:08:32.297Z,15.37
2023-04-28T06:13:38.953Z,14.03
2023-04-28T06:18:43.004Z,16.30
2023-04-28T06:23:47.352Z,15.07
2023-04-28T06:28:52.106Z,15.60
2023-04-28T06:33:56.254Z,14.23
2023-04-28T06:39:00.825Z,13.40
2023-04-28T06:44:05.474Z,13.63
2023-04-28T06:49:10.065Z,11.90
2023-04-28T06:54:13.953Z,17.37
2023-04-28T06:59:18.707Z,13.57
2023-04-28T07:04:21.012Z,17.90
2023-04-28T07:09:26.015Z,13.57
2023-04-28T07:14:30.543Z,13.43
2023-04-28T07:19:32.428Z,11.87
2023-04-28T07:24:34.340Z,12.07
2023-04-28T07:29:39.010Z,12.43
2023-04-28T07:34:43.000Z,10.13
2023-04-28T07:39:47.324Z,13.10
2023-04-28T07:44:51.918Z,12.70
2023-04-28T07:49:53.659Z,13.00
2023-04-28T07:54:57.801Z,12.53
2023-04-28T08:00:02.049Z,12.47
2023-04-28T08:05:16.102Z,10.80
2023-04-28T08:10:20.485Z,10.93
2023-04-28T08:15:22.419Z,12.80
2023-04-28T08:20:24.889Z,11.65
2023-04-28T08:25:26.757Z,10.13
2023-04-28T08:30:28.510Z,9.90
2023-04-28T08:35:30.344Z,9.52
2023-04-28T08:40:34.382Z,10.57
2023-04-28T08:45:44.233Z,10.73
2023-04-28T08:50:56.083Z,10.35
2023-04-28T08:55:58.380Z,9.65
2023-04-28T09:01:04.676Z,11.30
2023-04-28T09:06:08.815Z,10.43
2023-04-28T09:11:12.551Z,9.60
2023-04-28T09:16:17.110Z,9.63
2023-04-28T09:21:19.169Z,9.50
2023-04-28T09:26:25.812Z,13.07
2023-04-28T09:31:29.585Z,12.27
2023-04-28T09:36:31.461Z,10.75
2023-04-28T09:41:38.352Z,13.07
2023-04-28T09:46:42.446Z,8.98
2023-04-28T09:51:50.268Z,11.18
2023-04-28T09:56:52.395Z,9.48
2023-04-28T10:02:00.899Z,11.40
2023-04-28T10:07:14.535Z,8.80
2023-04-28T10:12:18.952Z,8.70
2023-04-28T10:17:29.652Z,9.10
2023-04-28T10:22:53.511Z,10.73
2023-04-28T10:27:56.352Z,11.85
2023-04-28T10:33:15.623Z,11.98
2023-04-28T10:38:19.036Z,9.05
2023-04-28T10:43:30.993Z,11.73
2023-04-28T10:48:36.994Z,10.68
2023-04-28T10:53:45.088Z,10.00
2023-04-28T10:58:51.765Z,8.80
2023-04-28T11:04:03.173Z,8.00
2023-04-28T11:09:20.315Z,10.23
2023-04-28T11:14:22.102Z,14.15
2023-04-28T11:19:33.283Z,13.38
2023-04-28T11:24:41.125Z,12.38
2023-04-28T11:29:49.159Z,11.68
2023-04-28T11:34:52.178Z,12.07
2023-04-28T11:39:57.427Z,13.70
2023-04-28T11:44:59.249Z,9.65
2023-04-28T11:50:06.623Z,11.73
2023-04-28T11:55:08.708Z,13.98
2023-04-28T12:00:14.771Z,8.75
2023-04-28T12:05:24.817Z,11.25
2023-04-28T12:10:26.769Z,12.80
2023-04-28T12:15:40.967Z,12.95
2023-04-28T12:20:43.563Z,14.30
2023-04-28T12:25:46.319Z,11.75
2023-04-28T12:30:48.227Z,12.60
2023-04-28T12:35:50.086Z,12.60
2023-04-28T12:40:56.966Z,12.70
2023-04-28T12:46:00.440Z,14.18
2023-04-28T12:51:06.758Z,9.30
2023-04-28T12:56:11.043Z,11.88
2023-04-28T13:01:13.508Z,13.30
2023-04-28T13:06:15.534Z,13.10
2023-04-28T13:11:22.864Z,17.60
2023-04-28T13:16:33.893Z,14.50
2023-04-28T13:21:36.638Z,12.93
2023-04-28T13:26:44.186Z,10.70
2023-04-28T13:31:46.203Z,15.23
2023-04-28T13:36:54.134Z,13.25
2023-04-28T13:41:58.303Z,16.17
2023-04-28T13:47:00.926Z,14.32
2023-04-28T13:52:03.637Z,14.10
2023-04-28T13:57:05.553Z,20.10
2023-04-28T14:02:09.552Z,18.27
2023-04-28T14:07:13.861Z,15.93
2023-04-28T14:12:20.872Z,17.83
2023-04-28T14:17:22.814Z,19.05
2023-04-28T14:22:24.774Z,21.90
2023-04-28T14:27:29.344Z,18.55
2023-04-28T14:32:31.211Z,19.63
2023-04-28T14:37:35.604Z,20.40
2023-04-28T14:42:40.624Z,22.10
2023-04-28T14:47:51.654Z,18.95
2023-04-28T14:52:56.161Z,18.98
2023-04-28T14:58:00.629Z,25.40
2023-04-28T15:03:04.047Z,21.88
2023-04-28T15:08:13.507Z,19.85
2023-04-28T15:13:15.601Z,21.38
2023-04-28T15:18:18.136Z,25.73
2023-04-28T15:23:24.631Z,24.13
2023-04-28T15:28:34.612Z,23.90
2023-04-28T15:33:40.833Z,22.70
2023-04-28T15:38:45.589Z,27.67
2023-04-28T15:43:51.760Z,22.13
2023-04-28T15:48:55.822Z,24.45
2023-04-28T15:53:57.787Z,20.65
2023-04-28T15:59:01.875Z,22.97
2023-04-28T16:04:12.849Z,25.80
2023-04-28T16:09:16.917Z,25.73
2023-04-28T16:14:21.638Z,27.63
2023-04-28T16:19:25.979Z,28.47
2023-04-28T16:24:28.821Z,29.08
2023-04-28T16:29:34.978Z,37.17
2023-04-28T16:34:36.751Z,29.97
2023-04-28T16:39:38.657Z,32.90
2023-04-28T16:44:40.429Z,28.43
2023-04-28T16:49:44.575Z,30.88
2023-04-28T16:54:48.789Z,23.87
2023-04-28T16:59:51.170Z,31.35
2023-04-28T17:04:57.517Z,27.13
2023-04-28T17:10:01.897Z,28.23
2023-04-28T17:15:04.187Z,30.45
2023-04-28T17:20:09.261Z,27.80
2023-04-28T17:25:12.185Z,24.20
2023-04-28T17:30:14.203Z,27.03
2023-04-28T17:35:16.303Z,25.00
2023-04-28T17:40:18.770Z,28.63
2023-04-28T17:45:22.723Z,31.00
2023-04-28T17:50:26.886Z,29.73
2023-04-28T17:55:32.586Z,29.63
2023-04-28T18:00:35.110Z,25.43
2023-04-28T18:05:39.306Z,28.17
2023-04-28T18:10:46.249Z,25.00
2023-04-28T18:15:48.354Z,30.85
2023-04-28T18:20:50.239Z,30.38
2023-04-28T18:25:55.015Z,34.65
2023-04-28T18:30:58.906Z,29.97
2023-04-28T18:36:06.135Z,30.63
2023-04-28T18:41:15.704Z,27.93
2023-04-28T18:46:17.904Z,31.13
2023-04-28T18:51:20.199Z,32.03
2023-04-28T18:56:29.206Z,32.10
2023-04-28T19:01:31.499Z,28.17
2023-04-28T19:06:33.804Z,31.17
2023-04-28T19:11:35.627Z,39.93
2023-04-28T19:16:37.371Z,37.60
2023-04-28T19:21:42.629Z,35.87
2023-04-28T19:26:44.287Z,42.07
2023-04-28T19:31:46.069Z,37.73
2023-04-28T19:36:47.973Z,32.20
2023-04-28T19:41:50.785Z,42.27
2023-04-28T19:46:52.669Z,38.37
2023-04-28T19:51:58.561Z,41.57
2023-04-28T19:57:05.405Z,38.40
2023-04-28T20:02:08.400Z,43.00
2023-04-28T20:07:13.146Z,39.73
2023-04-28T20:12:17.776Z,40.53
2023-04-28T20:17:22.278Z,47.67
2023-04-28T20:22:24.281Z,43.27
2023-04-28T20:27:27.005Z,46.80
2023-04-28T20:32:31.278Z,47.80
2023-04-28T20:37:33.370Z,44.60
2023-04-28T20:42:37.491Z,46.23
2023-04-28T20:47:39.804Z,42.57
2023-04-28T20:52:44.197Z,49.17
2023-04-28T20:57:50.641Z,45.07
2023-04-28T21:02:52.697Z,44.53
2023-04-28T21:07:57.691Z,47.50
2023-04-28T21:12:59.483Z,43.33
2023-04-28T21:18:06.216Z,44.40
2023-04-28T21:23:10.246Z,44.30
2023-04-28T21:28:11.987Z,40.67
2023-04-28T21:33:16.003Z,41.20
2023-04-28T21:38:19.922Z,38.73
2023-04-28T21:43:24.037Z,41.57
2023-04-28T21:48:25.769Z,52.07
2023-04-28T21:53:30.575Z,40.03
2023-04-28T21:58:38.385Z,44.73
2023-04-28T22:03:45.281Z,43.40
2023-04-28T22:08:47.086Z,39.90
2023-04-28T22:13:48.868Z,44.23
2023-04-28T22:18:50.514Z,43.67
2023-04-28T22:23:52.177Z,40.33
2023-04-28T22:29:06.564Z,37.17
2023-04-28T22:34:09.932Z,37.90
2023-04-28T22:39:11.937Z,40.37
2023-04-28T22:44:18.455Z,45.20
2023-04-28T22:49:28.677Z,43.53
2023-04-28T22:54:31.880Z,42.60
2023-04-28T22:59:33.545Z,38.63
2023-04-28T23:04:40.135Z,39.30
2023-04-28T23:09:42.261Z,37.80
2023-04-28T23:14:47.392Z,46.43
2023-04-28T23:19:51.436Z,44.10
2023-04-28T23:24:55.683Z,53.67
2023-04-28T23:30:06.823Z,46.30
2023-04-28T23:35:10.887Z,38.03
2023-04-28T23:40:15.386Z,44.37
2023-04-28T23:45:21.633Z,45.43
2023-04-28T23:50:23.932Z,40.50
2023-04-28T23:55:28.059Z,43.77
